Terminal Aerodrome Forecast
Issued by NWS

Home | Current Version | Previous Version | Text Only | Print | Product List | Glossary On
Versions: 1 2 3 4 5 6 7 8 9 10 11 12 13 14 15 16 17 18 19 20 21 22
053
FTUS43 KPAH 261422 AAA
TAFCGI
TAF AMD
KCGI 261422Z 2614/2712 23005KT P6SM OVC040
     FM261700 21010G15KT P6SM BKN050
     FM262300 17004KT P6SM SCT040 BKN250
     FM271000 15005KT P6SM VCSH BKN050=

USA.gov is the U.S. government's official web portal to all federal, state and local government web resources and services.